АЭРОДРОМУУД

ICAO:
ZMUB
Нэр:
УЛААНБААТАР / БУЯНТ-УХАА
Ахц:
475033N 1064603E
180833 ZMUBYNYX
(A0651/21 NOTAMN
Q) ZMUB/QGAAU/I /NBO/A /000/999/4750N10646E005
A) ZMUB B) 2109201342 C) 2109201352
E) GPS RAIM NOT AVBL FOR FLT PROC)
- 7 hours ago -

170828 ZMUBYNYX
(A0648/21 NOTAMN
Q) ZMUB/QGAAU/I /NBO/A /000/999/4750N10646E005
A) ZMUB B) 2109191346 C) 2109191356
E) GPS RAIM NOT AVBL FOR FLT PROC.)
- 1 day ago -

060432 ZMUBYNYX
(C0201/21 NOTAMR C0184/21
Q) ZMUB/QKKKK/K /K /K /000/999/4752N10350E999
A) ZMUB B) 2109060432 C) 2110010700 EST
E) CHECKLIST YEAR=2021 0096 0103 0116 0138 0150 0182 0183 0194 0195 0196 0197 0198 0199 0200 LATEST PUBLICATIONS: AIRAC AIP SUP : 01/21 WEF 12 AUG 2021 AIP SUP : 01/21 PUBLICATION DATE 29 JUL 2021 AIRAC AIP AMDT: 05/21 WEF 12 AUG 2021 AIP AMDT : 06/21 PUBLICATION DATE 26 AUG 2021 AIC(SERIES C) : 01/21 PUBLICATION DATE 18 JAN 2021 AIP DATA SET : AIPZM-AMDT06-21 PUB 26 AUG 2021 OBST DATA SET : O-AREA1ZM200618 WEF 18 JUN 2020 O-AREA2ZMCK200618 WEF 18 JUN 2020 O-AREA2ZMUB200730 WEF 10 SEP 2020 O-AREA3ZMCK200618 WEF 18 JUN 2020 O-AREA3ZMUB200618 WEF 18 JUN 2020. TERRAIN DATA SET : T-AREA1ZM200618 WEF 18 JUN 2020 T-AREA2ZMCK200618 WEF 18 JUN 2020 T-AREA2ZMUB200618 WEF 18 JUN 2020 T-AREA3ZMCK200618 WEF 18 JUN 2020 T-AREA3ZMUB200618 WEF 18 JUN 2020. AD MAPPING DATA SET : AMDBZMCK200618 WEF 18 JUN 2020 AMDBZMUB200618 WEF 18 JUN 2020 AMDBZMDZ200618 WEF 18 JUN 2020 IFP DATA SET : IFPZM21 WEF 04 JAN 2021 AIP SUP CHECKLIST: AIP SUP: 01/20, 07/20, 08/20, 01/21 AIRAC AIP SUP: 01/21 AIC CHECKLIST: AIC (SERIES C): 02/08, 02/20, 01/21.)
- 2 weeks ago -

011819 ZMUBYNYX
(A0543/21 NOTAMN
Q) ZMUB/QFAHX/IV/NBO/A /000/999/4751N10644E001
A) ZMUB B) 2109020200 C) 2109301100
D) DAILY 0200-1100
E) AD BIRD CONCENTRATION WI 1.5KM RADIUS CENTRED ON 475155N1064403E
F) GND G) 250M AGL)
- 2 weeks ago -

010400 ZMUBYNYX
(A0530/21 NOTAMR A0416/21
Q) ZMUB/QKKKK/K /K /K /000/999/4752N10350E999
A) ZMUB B) 2109010400 C) 2110010700 EST
E) CHECKLIST YEAR=2021 0293 0403 0415 0490 0515 0516 0517 0518 0519 0523 0524 0525 0526 0527 0528 0529 LATEST PUBLICATIONS: AIRAC AIP SUP : 01/21 WEF 12 AUG 2021 AIP SUP : 01/21 PUBLICATION DATE 29 JUL 2021 AIRAC AIP AMDT: 05/21 WEF 12 AUG 2021 AIP AMDT : 06/21 PUBLICATION DATE 26 AUG 2021 AIC(SERIES A) : 03/21 PUBLICATION DATE 16 APR 2021 AIP DATA SET : AIPZM-AMDT06-21 PUB 26 AUG 2021 OBST DATA SET : O-AREA1ZM200618 WEF 18 JUN 2020 O-AREA2ZMCK200618 WEF 18 JUN 2020 O-AREA2ZMUB200730 WEF 10 SEP 2020 O-AREA3ZMCK200618 WEF 18 JUN 2020 O-AREA3ZMUB200618 WEF 18 JUN 2020. TERRAIN DATA SET : T-AREA1ZM200618 WEF 18 JUN 2020 T-AREA2ZMCK200618 WEF 18 JUN 2020 T-AREA2ZMUB200618 WEF 18 JUN 2020 T-AREA3ZMCK200618 WEF 18 JUN 2020 T-AREA3ZMUB200618 WEF 18 JUN 2020. AD MAPPING DATA SET : AMDBZMCK200618 WEF 18 JUN 2020 AMDBZMUB200618 WEF 18 JUN 2020 AMDBZMDZ200618 WEF 18 JUN 2020 IFP DATA SET : IFPZM21 WEF 04 JAN 2021 AIP SUP CHECKLIST: AIP SUP: 01/20, 07/20, 08/20, 01/21 AIRAC AIP SUP: 01/21 AIC CHECKLIST: AIC (SERIES A): 04/17, 03/20, 06/20, 01/21, 02/21, 03/21.)
- 2 weeks ago -

312334 ZMUBYNYX
(A0528/21 NOTAMR A0402/21
Q) ZMUB/QFALT/IV/NBO/A /000/999/4750N10646E005
A) ZMUB B) 2108312334 C) 2109300000
E) AD AVBL FOR EMERGENCY LANDING.)
- 3 weeks ago -

METAR
No records found.
TAF
TAF ZMUB 180750Z 1809/1818 VRB02MPS 9999 FEW030CB SCT033=
- 8 hours ago -

TAF ZMUB 180500Z 1806/1815 VRB02MPS 9999 FEW030CB SCT033=
- 11 hours ago -

TAF ZMUB 180440Z 1806/1912 VRB02MPS 9999 FEW030CB SCT033 TX21/1807Z TN05/1822Z TEMPO 1822/1912 VRB08MPS SHRA SCT027CB BKN030=
- 11 hours ago -

TAF ZMUB 070200Z CHECK TEXT NEW ENDING ADDED ZMUBYFYX
- 2 weeks ago -